createdAt,value
2023-04-15T00:00:15.586Z,56.1524
2023-04-15T00:01:17.934Z,55.4460
2023-04-15T00:02:20.536Z,55.2179
2023-04-15T00:03:23.030Z,55.2346
2023-04-15T00:04:25.042Z,55.4529
2023-04-15T00:05:27.252Z,55.1399
2023-04-15T00:06:29.584Z,55.0974
2023-04-15T00:07:31.933Z,55.0063
2023-04-15T00:08:34.257Z,54.6856
2023-04-15T00:09:36.577Z,54.3849
2023-04-15T00:10:38.917Z,54.4679
2023-04-15T00:11:41.251Z,53.5341
2023-04-15T00:12:43.586Z,53.5420
2023-04-15T00:13:45.905Z,53.8971
2023-04-15T00:14:48.232Z,54.5158
2023-04-15T00:15:50.576Z,54.2459
2023-04-15T00:16:52.912Z,53.6723
2023-04-15T00:17:55.259Z,53.6164
2023-04-15T00:18:57.656Z,53.9454
2023-04-15T00:19:59.886Z,54.7189
2023-04-15T00:21:02.277Z,55.2070
2023-04-15T00:22:04.550Z,55.3166
2023-04-15T00:23:06.898Z,55.1631
2023-04-15T00:24:09.237Z,55.6838
2023-04-15T00:25:11.582Z,55.4912
2023-04-15T00:26:13.917Z,55.0169
2023-04-15T00:27:16.240Z,54.7350
2023-04-15T00:28:18.577Z,54.7978
2023-04-15T00:29:20.907Z,55.3364
2023-04-15T00:30:23.233Z,55.6101
2023-04-15T00:31:25.690Z,55.2322
2023-04-15T00:32:27.937Z,54.4820
2023-04-15T00:33:30.237Z,53.9619
2023-04-15T00:34:32.584Z,53.9296
2023-04-15T00:35:34.907Z,54.6166
2023-04-15T00:36:37.253Z,54.0267
2023-04-15T00:37:39.575Z,54.7934
2023-04-15T00:38:41.914Z,55.3955
2023-04-15T00:39:44.242Z,55.8328
2023-04-15T00:40:46.590Z,55.3614
2023-04-15T00:41:48.928Z,55.2736
2023-04-15T00:42:51.241Z,55.9185
2023-04-15T00:43:53.573Z,56.3042
2023-04-15T00:44:55.905Z,56.0940
2023-04-15T00:45:58.327Z,55.9393
2023-04-15T00:47:00.570Z,55.8865
2023-04-15T00:48:02.918Z,56.0967
2023-04-15T00:49:05.234Z,55.7641
2023-04-15T00:50:07.557Z,55.6593
2023-04-15T00:51:09.923Z,55.7179
2023-04-15T00:52:12.233Z,55.3692
2023-04-15T00:53:14.544Z,54.6898
2023-04-15T00:54:16.873Z,54.1974
2023-04-15T00:55:19.217Z,54.3573
2023-04-15T00:56:21.534Z,54.1267
2023-04-15T00:57:23.890Z,54.4920
2023-04-15T00:58:26.203Z,54.0690
2023-04-15T00:59:28.537Z,53.6547
2023-04-15T01:00:30.865Z,53.9697
2023-04-15T01:01:33.242Z,53.3315
2023-04-15T01:02:35.642Z,53.3641
2023-04-15T01:03:38.118Z,53.3302
2023-04-15T01:04:40.194Z,53.2258
2023-04-15T01:05:42.521Z,53.8533
2023-04-15T01:06:44.861Z,54.6506
2023-04-15T01:07:47.207Z,55.0695
2023-04-15T01:08:49.517Z,55.2266
2023-04-15T01:09:51.848Z,55.4477
2023-04-15T01:10:54.176Z,55.0808
2023-04-15T01:11:56.510Z,55.2634
2023-04-15T01:12:58.855Z,55.2037
2023-04-15T01:14:01.178Z,55.1206
2023-04-15T01:15:03.505Z,54.9959
2023-04-15T01:16:05.874Z,54.9640
2023-04-15T01:17:08.176Z,55.2076
2023-04-15T01:18:10.507Z,54.6930
2023-04-15T01:19:12.832Z,54.9903
2023-04-15T01:20:15.174Z,55.1834
2023-04-15T01:21:17.496Z,55.3651
2023-04-15T01:22:19.835Z,55.3516
2023-04-15T01:23:22.162Z,55.9208
2023-04-15T01:24:24.485Z,55.5622
2023-04-15T01:25:26.830Z,54.8827
2023-04-15T01:26:29.156Z,54.4337
2023-04-15T01:27:31.478Z,54.7888
2023-04-15T01:28:33.810Z,54.4882
2023-04-15T01:29:36.145Z,53.4091
2023-04-15T01:30:38.504Z,53.8251
2023-04-15T01:31:40.841Z,54.1215
2023-04-15T01:32:43.184Z,54.6505
2023-04-15T01:33:45.480Z,54.6552
2023-04-15T01:34:47.804Z,54.5136
2023-04-15T01:35:50.159Z,54.9483
2023-04-15T01:36:52.495Z,55.1960
2023-04-15T01:37:54.805Z,55.5637
2023-04-15T01:38:57.142Z,55.7158
2023-04-15T01:39:59.473Z,55.5805
2023-04-15T01:41:01.866Z,55.5297
2023-04-15T01:42:04.148Z,55.2625
2023-04-15T01:43:06.477Z,55.1821
2023-04-15T01:44:08.817Z,55.2337
2023-04-15T01:45:11.144Z,55.4871
2023-04-15T01:46:13.517Z,54.9579
2023-04-15T01:47:15.806Z,54.9245
2023-04-15T01:48:18.142Z,55.2420
2023-04-15T01:49:20.497Z,54.2479
2023-04-15T01:50:22.813Z,54.1732
2023-04-15T01:51:25.139Z,54.3021
2023-04-15T01:52:27.474Z,54.3664
2023-04-15T01:53:29.808Z,54.5182
2023-04-15T01:54:32.159Z,54.8844
2023-04-15T01:55:34.474Z,54.7268
2023-04-15T01:56:36.828Z,53.8346
2023-04-15T01:57:39.146Z,54.1046
2023-04-15T01:58:41.473Z,54.0342
2023-04-15T01:59:43.814Z,53.8518
2023-04-15T02:00:46.154Z,52.2656
2023-04-15T02:01:48.511Z,51.9796
2023-04-15T02:02:50.856Z,52.4647
2023-04-15T02:03:53.181Z,52.2259
2023-04-15T02:04:55.479Z,51.9190
2023-04-15T02:05:57.817Z,52.0170
2023-04-15T02:07:00.271Z,52.8301
2023-04-15T02:08:02.562Z,53.0439
2023-04-15T02:09:04.893Z,53.1088
2023-04-15T02:10:07.236Z,53.2096
2023-04-15T02:11:09.567Z,53.3775
2023-04-15T02:12:11.927Z,52.5633
2023-04-15T02:13:14.255Z,52.2225
2023-04-15T02:14:16.579Z,52.2366
2023-04-15T02:15:18.917Z,52.0416
2023-04-15T02:16:21.333Z,51.8588
2023-04-15T02:17:23.608Z,52.1024
2023-04-15T02:18:25.937Z,51.5019
2023-04-15T02:19:28.248Z,51.3574
2023-04-15T02:20:30.584Z,51.1708
2023-04-15T02:21:32.924Z,50.9862
2023-04-15T02:22:35.286Z,51.4988
2023-04-15T02:23:37.593Z,51.7063
2023-04-15T02:24:39.925Z,51.7469
2023-04-15T02:25:42.267Z,51.7280
2023-04-15T02:26:44.612Z,51.8322
2023-04-15T02:27:46.974Z,51.9637
2023-04-15T02:28:49.265Z,52.0040
2023-04-15T02:29:51.602Z,52.0899
2023-04-15T02:30:53.946Z,51.7193
2023-04-15T02:31:56.342Z,51.5657
2023-04-15T02:32:58.667Z,51.2398
2023-04-15T02:34:00.944Z,52.0699
2023-04-15T02:35:03.357Z,51.7851
2023-04-15T02:36:05.614Z,50.8326
2023-04-15T02:37:07.952Z,49.9020
2023-04-15T02:38:10.296Z,49.3683
2023-04-15T02:39:12.633Z,49.8289
2023-04-15T02:40:14.970Z,49.5690
2023-04-15T02:41:17.305Z,49.8518
2023-04-15T02:42:19.640Z,49.5915
2023-04-15T02:43:22.092Z,49.1474
2023-04-15T02:44:24.310Z,49.9040
2023-04-15T02:45:26.658Z,50.8423
2023-04-15T02:46:29.095Z,50.8122
2023-04-15T02:47:31.359Z,51.2601
2023-04-15T02:48:33.696Z,50.6062
2023-04-15T02:49:35.993Z,49.8217
2023-04-15T02:50:38.698Z,50.9101
2023-04-15T02:51:40.673Z,50.5768
2023-04-15T02:52:43.008Z,49.1792
2023-04-15T02:53:45.343Z,50.1681
2023-04-15T02:54:47.680Z,51.4487
2023-04-15T02:55:50.039Z,50.0387
2023-04-15T02:56:52.360Z,48.5755
2023-04-15T02:57:54.697Z,48.2516
2023-04-15T02:58:57.037Z,48.4972
2023-04-15T02:59:59.360Z,48.4472
2023-04-15T03:01:01.738Z,47.7516
2023-04-15T03:02:04.069Z,49.4807
2023-04-15T03:03:06.724Z,50.1148
2023-04-15T03:04:08.840Z,50.2485
2023-04-15T03:05:11.055Z,48.9498
2023-04-15T03:06:13.429Z,49.3904
2023-04-15T03:07:15.741Z,48.9441
2023-04-15T03:08:18.070Z,48.0978
2023-04-15T03:09:20.414Z,49.5108
2023-04-15T03:10:22.762Z,49.1578
2023-04-15T03:11:25.097Z,48.7579
2023-04-15T03:12:27.420Z,48.9042
2023-04-15T03:13:29.749Z,50.3446
2023-04-15T03:14:32.117Z,50.9922
2023-04-15T03:15:34.431Z,49.4070
2023-04-15T03:16:36.776Z,48.6193
2023-04-15T03:17:39.134Z,49.0249
2023-04-15T03:18:41.419Z,49.8167
2023-04-15T03:19:43.762Z,49.2292
2023-04-15T03:20:46.128Z,49.7178
2023-04-15T03:21:48.448Z,49.2424
2023-04-15T03:22:50.772Z,48.1991
2023-04-15T03:23:53.206Z,47.7268
2023-04-15T03:24:55.439Z,47.9400
2023-04-15T03:25:57.782Z,47.6821
2023-04-15T03:27:00.139Z,47.9406
2023-04-15T03:28:02.446Z,48.0393
2023-04-15T03:29:04.787Z,48.5946
2023-04-15T03:30:07.125Z,48.4239
2023-04-15T03:31:09.488Z,48.6606
2023-04-15T03:32:11.818Z,49.5114
2023-04-15T03:33:14.129Z,49.3733
2023-04-15T03:34:16.484Z,49.2839
2023-04-15T03:35:18.814Z,48.8944
2023-04-15T03:36:21.160Z,48.8455
2023-04-15T03:37:23.486Z,48.2081
2023-04-15T03:38:25.814Z,48.5699
2023-04-15T03:39:28.146Z,49.0288
2023-04-15T03:40:30.492Z,49.2077
2023-04-15T03:41:32.864Z,48.5746
2023-04-15T03:42:35.171Z,48.5323
2023-04-15T03:43:37.496Z,48.5597
2023-04-15T03:44:39.836Z,47.6279
2023-04-15T03:45:42.191Z,47.6962
2023-04-15T03:46:44.598Z,48.3204
2023-04-15T03:47:46.859Z,47.8324
2023-04-15T03:48:49.193Z,47.9700
2023-04-15T03:49:51.519Z,48.4684
2023-04-15T03:50:53.863Z,49.1086
2023-04-15T03:51:56.192Z,49.5882
2023-04-15T03:52:58.534Z,49.9731
2023-04-15T03:54:00.856Z,49.6128
2023-04-15T03:55:03.211Z,49.5949
2023-04-15T03:56:05.527Z,49.8423
2023-04-15T03:57:07.864Z,49.6215
2023-04-15T03:58:10.208Z,49.6074
2023-04-15T03:59:12.527Z,49.5193
2023-04-15T04:00:14.860Z,49.3978
2023-04-15T04:01:17.201Z,49.4398
2023-04-15T04:02:19.582Z,49.8607
2023-04-15T04:03:22.584Z,49.5516
2023-04-15T04:04:24.331Z,49.3561
2023-04-15T04:05:26.525Z,50.0273
2023-04-15T04:06:28.863Z,49.5300
2023-04-15T04:07:31.220Z,49.5704
2023-04-15T04:08:33.646Z,50.3885
2023-04-15T04:09:35.876Z,49.5488
2023-04-15T04:10:38.245Z,49.4257
2023-04-15T04:11:40.572Z,49.7878
2023-04-15T04:12:42.892Z,49.7168
2023-04-15T04:13:45.245Z,49.3382
2023-04-15T04:14:47.559Z,49.3171
2023-04-15T04:15:49.968Z,49.9132
2023-04-15T04:16:52.251Z,49.7143
2023-04-15T04:17:54.620Z,49.6303
2023-04-15T04:18:56.905Z,49.8421
2023-04-15T04:19:59.243Z,49.3652
2023-04-15T04:21:01.585Z,49.3321
2023-04-15T04:22:03.912Z,49.6073
2023-04-15T04:23:06.237Z,49.4159
2023-04-15T04:24:08.588Z,49.2564
2023-04-15T04:25:10.921Z,49.0473
2023-04-15T04:26:13.291Z,49.0901
2023-04-15T04:27:15.584Z,49.2645
2023-04-15T04:28:17.933Z,49.4884
2023-04-15T04:29:20.263Z,49.9833
2023-04-15T04:30:22.597Z,50.1346
2023-04-15T04:31:24.972Z,50.3451
2023-04-15T04:32:27.306Z,50.5818
2023-04-15T04:33:29.621Z,50.9726
2023-04-15T04:34:31.937Z,51.4080
2023-04-15T04:35:34.277Z,52.0220
2023-04-15T04:36:36.622Z,51.6432
2023-04-15T04:37:38.953Z,51.6308
2023-04-15T04:38:41.293Z,51.6494
2023-04-15T04:39:43.625Z,51.6675
2023-04-15T04:40:45.953Z,51.9180
2023-04-15T04:41:48.294Z,52.2349
2023-04-15T04:42:50.625Z,52.1059
2023-04-15T04:43:52.972Z,52.4003
2023-04-15T04:44:55.293Z,51.4635
2023-04-15T04:45:57.674Z,51.0050
2023-04-15T04:46:59.985Z,51.1739
2023-04-15T04:48:02.317Z,51.5255
2023-04-15T04:49:04.919Z,51.1655
2023-04-15T04:50:06.972Z,51.0788
2023-04-15T04:51:09.308Z,50.9611
2023-04-15T04:52:11.682Z,51.0420
2023-04-15T04:53:14.005Z,50.5815
2023-04-15T04:54:16.320Z,50.2819
2023-04-15T04:55:18.648Z,49.5293
2023-04-15T04:56:20.984Z,49.4043
2023-04-15T04:57:23.313Z,49.5058
2023-04-15T04:58:25.649Z,49.2325
2023-04-15T04:59:27.984Z,49.2800
2023-04-15T05:00:30.325Z,49.6183
2023-04-15T05:01:32.701Z,49.9103
2023-04-15T05:02:35.072Z,49.4913
2023-04-15T05:03:37.406Z,49.5755
2023-04-15T05:04:39.665Z,49.2722
2023-04-15T05:05:42.006Z,49.3378
2023-04-15T05:06:44.337Z,49.2926
2023-04-15T05:07:46.669Z,49.3341
2023-04-15T05:08:49.016Z,49.3095
2023-04-15T05:09:51.345Z,49.9004
2023-04-15T05:10:53.700Z,49.8870
2023-04-15T05:11:56.016Z,49.9974
2023-04-15T05:12:58.350Z,50.3508
2023-04-15T05:14:00.686Z,51.0601
2023-04-15T05:15:03.029Z,50.9079
2023-04-15T05:16:05.448Z,49.6863
2023-04-15T05:17:07.705Z,49.6404
2023-04-15T05:18:10.038Z,50.1333
2023-04-15T05:19:12.374Z,50.5157
2023-04-15T05:20:14.708Z,50.5399
2023-04-15T05:21:17.059Z,50.7952
2023-04-15T05:22:19.388Z,51.2968
2023-04-15T05:23:21.721Z,50.8736
2023-04-15T05:24:24.066Z,50.0436
2023-04-15T05:25:26.394Z,49.0075
2023-04-15T05:26:28.739Z,48.9764
2023-04-15T05:27:31.074Z,48.8958
2023-04-15T05:28:33.407Z,49.2088
2023-04-15T05:29:35.741Z,49.4569
2023-04-15T05:30:38.189Z,49.3577
2023-04-15T05:31:40.590Z,49.7443
2023-04-15T05:32:42.781Z,49.3751
2023-04-15T05:33:45.084Z,49.7999
2023-04-15T05:34:47.421Z,49.4816
2023-04-15T05:35:49.754Z,49.5774
2023-04-15T05:36:52.098Z,49.7187
2023-04-15T05:37:54.436Z,50.1001
2023-04-15T05:38:56.755Z,49.7679
2023-04-15T05:39:59.095Z,49.3380
2023-04-15T05:41:01.428Z,49.2936
2023-04-15T05:42:03.782Z,49.1288
2023-04-15T05:43:06.114Z,49.4724
2023-04-15T05:44:08.440Z,48.7980
2023-04-15T05:45:10.776Z,48.8028
2023-04-15T05:46:13.180Z,48.9567
2023-04-15T05:47:15.553Z,49.0246
2023-04-15T05:48:17.794Z,48.8092
2023-04-15T05:49:20.125Z,49.4202
2023-04-15T05:50:22.467Z,49.7131
2023-04-15T05:51:24.815Z,50.1759
2023-04-15T05:52:27.142Z,50.0872
2023-04-15T05:53:29.483Z,50.8008
2023-04-15T05:54:31.811Z,51.1893
2023-04-15T05:55:34.144Z,51.5844
2023-04-15T05:56:36.493Z,51.6908
2023-04-15T05:57:38.827Z,51.1539
2023-04-15T05:58:41.152Z,51.0247
2023-04-15T05:59:43.485Z,51.1730
2023-04-15T06:00:45.826Z,51.1986
2023-04-15T06:01:48.284Z,50.8397
2023-04-15T06:02:50.654Z,50.4712
2023-04-15T06:03:52.972Z,50.4898
2023-04-15T06:04:55.193Z,50.4711
2023-04-15T06:05:57.516Z,50.4220
2023-04-15T06:06:59.847Z,50.0560
2023-04-15T06:08:02.190Z,49.8707
2023-04-15T06:09:04.702Z,49.8081
2023-04-15T06:10:06.869Z,50.0029
2023-04-15T06:11:09.190Z,49.7515
2023-04-15T06:12:11.622Z,49.7480
2023-04-15T06:13:13.949Z,49.8084
2023-04-15T06:14:16.268Z,49.4349
2023-04-15T06:15:18.602Z,49.9304
2023-04-15T06:16:20.979Z,49.7578
2023-04-15T06:17:23.301Z,49.2025
2023-04-15T06:18:25.615Z,48.8277
2023-04-15T06:19:27.941Z,48.7470
2023-04-15T06:20:30.292Z,48.6962
2023-04-15T06:21:32.607Z,48.7608
2023-04-15T06:22:34.952Z,48.7325
2023-04-15T06:23:37.281Z,47.9420
2023-04-15T06:24:39.709Z,48.1543
2023-04-15T06:25:41.957Z,48.0705
2023-04-15T06:26:44.280Z,48.3224
2023-04-15T06:27:46.625Z,48.8206
2023-04-15T06:28:48.954Z,49.0677
2023-04-15T06:29:51.319Z,48.6907
2023-04-15T06:30:53.617Z,48.8772
2023-04-15T06:31:55.981Z,49.2003
2023-04-15T06:32:58.323Z,48.6798
2023-04-15T06:34:00.626Z,48.7677
2023-04-15T06:35:02.998Z,48.8244
2023-04-15T06:36:05.300Z,48.8466
2023-04-15T06:37:07.637Z,48.9023
2023-04-15T06:38:09.977Z,49.2159
2023-04-15T06:39:12.320Z,49.1537
2023-04-15T06:40:14.681Z,49.2648
2023-04-15T06:41:16.979Z,49.9433
2023-04-15T06:42:19.314Z,50.1060
2023-04-15T06:43:21.649Z,50.3614
2023-04-15T06:44:23.988Z,50.8151
2023-04-15T06:45:26.375Z,51.3037
2023-04-15T06:46:28.670Z,51.4860
2023-04-15T06:47:31.061Z,50.9789
2023-04-15T06:48:33.346Z,51.0795
2023-04-15T06:49:35.684Z,50.6757
2023-04-15T06:50:38.023Z,50.7250
2023-04-15T06:51:40.354Z,51.2663
2023-04-15T06:52:42.696Z,51.8732
2023-04-15T06:53:45.031Z,51.3766
2023-04-15T06:54:47.370Z,51.7340
2023-04-15T06:55:49.726Z,52.8751
2023-04-15T06:56:52.040Z,53.7358
2023-04-15T06:57:54.404Z,52.2405
2023-04-15T06:58:56.716Z,51.2976
2023-04-15T06:59:59.056Z,52.3743
2023-04-15T07:01:01.419Z,53.4847
2023-04-15T07:02:03.758Z,52.5806
2023-04-15T07:03:06.110Z,50.8781
2023-04-15T07:04:08.449Z,52.1246
2023-04-15T07:05:10.754Z,52.3163
2023-04-15T07:06:13.110Z,52.6464
2023-04-15T07:07:15.426Z,51.1328
2023-04-15T07:08:17.760Z,51.1857
2023-04-15T07:09:20.091Z,50.1851
2023-04-15T07:10:23.916Z,49.2536
2023-04-15T07:11:24.880Z,50.1886
2023-04-15T07:12:27.115Z,50.8883
2023-04-15T07:13:29.476Z,51.3276
2023-04-15T07:14:31.788Z,51.8382
2023-04-15T07:15:34.134Z,51.4291
2023-04-15T07:16:36.516Z,51.6591
2023-04-15T07:17:38.840Z,51.3704
2023-04-15T07:18:41.141Z,50.9904
2023-04-15T07:19:43.482Z,49.9096
2023-04-15T07:20:45.821Z,50.8647
2023-04-15T07:21:48.173Z,50.9490
2023-04-15T07:22:50.492Z,50.8659
2023-04-15T07:23:52.862Z,50.9241
2023-04-15T07:24:55.177Z,51.1240
2023-04-15T07:25:57.508Z,50.7005
2023-04-15T07:27:01.021Z,50.2195
2023-04-15T07:28:02.169Z,49.2222
2023-04-15T07:29:04.516Z,48.0101
2023-04-15T07:30:06.855Z,47.8892
2023-04-15T07:31:09.261Z,47.9298
2023-04-15T07:32:11.538Z,48.5988
2023-04-15T07:33:13.863Z,48.0807
2023-04-15T07:34:16.207Z,48.2161
2023-04-15T07:35:18.542Z,48.2063
2023-04-15T07:36:20.888Z,47.9923
2023-04-15T07:37:23.240Z,47.9415
2023-04-15T07:38:25.576Z,46.9625
2023-04-15T07:39:27.912Z,47.1244
2023-04-15T07:40:30.249Z,47.7312
2023-04-15T07:41:32.578Z,46.8066
2023-04-15T07:42:34.954Z,46.1663
2023-04-15T07:43:37.264Z,46.0558
2023-04-15T07:44:39.596Z,46.0172
2023-04-15T07:45:41.935Z,45.2701
2023-04-15T07:46:44.271Z,45.3467
2023-04-15T07:47:46.651Z,46.0628
2023-04-15T07:48:48.941Z,45.7482
2023-04-15T07:49:51.275Z,45.7452
2023-04-15T07:50:53.638Z,46.6092
2023-04-15T07:51:55.968Z,47.0627
2023-04-15T07:52:58.296Z,47.5023
2023-04-15T07:54:00.631Z,47.5156
2023-04-15T07:55:02.966Z,47.1311
2023-04-15T07:56:05.306Z,46.8446
2023-04-15T07:57:07.654Z,46.7564
2023-04-15T07:58:09.982Z,46.4865
2023-04-15T07:59:12.324Z,46.6902
2023-04-15T08:00:14.659Z,46.3926
2023-04-15T08:01:17.000Z,46.0649
2023-04-15T08:02:19.421Z,45.3300
2023-04-15T08:03:21.732Z,45.2595
2023-04-15T08:04:24.123Z,45.3014
2023-04-15T08:05:26.363Z,45.2587
2023-04-15T08:06:28.703Z,45.2766
2023-04-15T08:07:31.032Z,45.0823
2023-04-15T08:08:33.409Z,45.5051
2023-04-15T08:09:35.749Z,45.4653
2023-04-15T08:10:38.046Z,45.0874
2023-04-15T08:11:40.386Z,45.4607
2023-04-15T08:12:42.727Z,45.9208
2023-04-15T08:13:45.059Z,45.3927
2023-04-15T08:14:47.409Z,45.1009
2023-04-15T08:15:49.786Z,45.4789
2023-04-15T08:16:52.080Z,45.3334
2023-04-15T08:17:54.468Z,44.8811
2023-04-15T08:18:56.774Z,44.0699
2023-04-15T08:19:59.119Z,44.7997
2023-04-15T08:21:01.423Z,45.3808
2023-04-15T08:22:03.784Z,44.8189
2023-04-15T08:23:06.103Z,44.2932
2023-04-15T08:24:08.499Z,45.2583
2023-04-15T08:25:10.782Z,45.8051
2023-04-15T08:26:13.131Z,44.6807
2023-04-15T08:27:15.473Z,44.0830
2023-04-15T08:28:17.802Z,43.4149
2023-04-15T08:29:20.144Z,43.3961
2023-04-15T08:30:22.482Z,43.7583
2023-04-15T08:31:24.853Z,43.6930
2023-04-15T08:32:27.184Z,44.2313
2023-04-15T08:33:29.515Z,45.4789
2023-04-15T08:34:31.853Z,45.3944
2023-04-15T08:35:34.169Z,45.1533
2023-04-15T08:36:36.507Z,44.6803
2023-04-15T08:37:38.847Z,43.8009
2023-04-15T08:38:41.179Z,44.1420
2023-04-15T08:39:43.528Z,44.6738
2023-04-15T08:40:45.862Z,44.6691
2023-04-15T08:41:48.194Z,45.0595
2023-04-15T08:42:51.192Z,44.8616
2023-04-15T08:43:52.892Z,45.0125
2023-04-15T08:44:55.215Z,45.3697
2023-04-15T08:45:57.619Z,45.5408
2023-04-15T08:46:59.957Z,45.5235
2023-04-15T08:48:02.381Z,45.3806
2023-04-15T08:49:04.841Z,44.9016
2023-04-15T08:50:06.908Z,44.7215
2023-04-15T08:51:09.263Z,44.6645
2023-04-15T08:52:11.586Z,46.0433
2023-04-15T08:53:13.931Z,46.3558
2023-04-15T08:54:16.269Z,46.2841
2023-04-15T08:55:18.622Z,46.2639
2023-04-15T08:56:21.278Z,46.0643
2023-04-15T08:57:23.287Z,45.7984
2023-04-15T08:58:25.629Z,45.5259
2023-04-15T08:59:27.962Z,45.6332
2023-04-15T09:00:30.452Z,45.7812
2023-04-15T09:01:32.679Z,45.2699
2023-04-15T09:02:35.052Z,45.4277
2023-04-15T09:03:37.481Z,45.3404
2023-04-15T09:04:39.654Z,45.0637
2023-04-15T09:05:41.999Z,45.6415
2023-04-15T09:06:44.390Z,44.9425
2023-04-15T09:07:46.764Z,44.6944
2023-04-15T09:08:49.021Z,44.5518
2023-04-15T09:09:51.364Z,44.6950
2023-04-15T09:10:53.706Z,44.9029
2023-04-15T09:11:56.539Z,44.5325
2023-04-15T09:12:58.389Z,44.3622
2023-04-15T09:14:00.745Z,44.6490
2023-04-15T09:15:03.077Z,46.3872
2023-04-15T09:16:05.434Z,47.7749
2023-04-15T09:17:07.796Z,47.2931
2023-04-15T09:18:10.124Z,47.0265
2023-04-15T09:19:12.420Z,46.2413
2023-04-15T09:20:14.792Z,45.7821
2023-04-15T09:21:17.108Z,46.4396
2023-04-15T09:22:19.466Z,47.4285
2023-04-15T09:23:21.795Z,47.5783
2023-04-15T09:24:24.139Z,46.1088
2023-04-15T09:25:26.478Z,45.9677
2023-04-15T09:26:28.819Z,47.4738
2023-04-15T09:27:31.200Z,48.0078
2023-04-15T09:28:33.501Z,47.9242
2023-04-15T09:29:35.849Z,47.7291
2023-04-15T09:30:38.278Z,47.6421
2023-04-15T09:31:40.550Z,48.8628
2023-04-15T09:32:43.002Z,50.7284
2023-04-15T09:33:45.216Z,49.2797
2023-04-15T09:34:47.551Z,48.6589
2023-04-15T09:35:49.885Z,47.9248
2023-04-15T09:36:52.235Z,45.7019
2023-04-15T09:37:54.573Z,46.1185
2023-04-15T09:38:56.910Z,45.6483
2023-04-15T09:39:59.271Z,46.8316
2023-04-15T09:41:01.599Z,47.6899
2023-04-15T09:42:03.937Z,48.3144
2023-04-15T09:43:06.294Z,47.9170
2023-04-15T09:44:08.622Z,48.3766
2023-04-15T09:45:10.975Z,48.2457
2023-04-15T09:46:13.309Z,47.7561
2023-04-15T09:47:15.655Z,48.7988
2023-04-15T09:48:18.002Z,48.1407
2023-04-15T09:49:20.384Z,49.5063
2023-04-15T09:50:22.681Z,49.1604
2023-04-15T09:51:25.030Z,49.4500
2023-04-15T09:52:27.419Z,49.5798
2023-04-15T09:53:31.249Z,48.9802
2023-04-15T09:54:32.059Z,50.2097
2023-04-15T09:55:34.408Z,47.8003
2023-04-15T09:56:36.747Z,48.4411
2023-04-15T09:57:39.103Z,47.3118
2023-04-15T09:58:41.448Z,45.4697
2023-04-15T09:59:43.775Z,46.1281
2023-04-15T10:00:46.115Z,46.9220
2023-04-15T10:01:48.588Z,48.0012
2023-04-15T10:02:50.920Z,51.2543
2023-04-15T10:03:53.299Z,49.4062
2023-04-15T10:04:55.479Z,48.8535
2023-04-15T10:05:57.821Z,51.4607
2023-04-15T10:07:00.166Z,49.9765
2023-04-15T10:08:02.520Z,48.3247
2023-04-15T10:09:04.862Z,48.4111
2023-04-15T10:10:07.210Z,48.7821
2023-04-15T10:11:09.538Z,48.9658
2023-04-15T10:12:11.866Z,49.0956
2023-04-15T10:13:14.206Z,50.2009
2023-04-15T10:14:16.557Z,52.2623
2023-04-15T10:15:18.887Z,51.9519
2023-04-15T10:16:21.301Z,50.4578
2023-04-15T10:17:23.620Z,53.8365
2023-04-15T10:18:25.979Z,55.0508
2023-04-15T10:19:28.329Z,55.3249
2023-04-15T10:20:30.657Z,52.2379
2023-04-15T10:21:32.987Z,49.7766
2023-04-15T10:22:35.331Z,49.7180
2023-04-15T10:23:37.667Z,51.7704
2023-04-15T10:24:40.019Z,53.5086
2023-04-15T10:25:42.338Z,52.1681
2023-04-15T10:26:44.686Z,50.4228
2023-04-15T10:27:47.022Z,50.6571
2023-04-15T10:28:49.378Z,51.2331
2023-04-15T10:29:51.704Z,52.3119
2023-04-15T10:30:54.062Z,53.9030
2023-04-15T10:31:56.393Z,52.2109
2023-04-15T10:32:58.778Z,51.7218
2023-04-15T10:34:01.390Z,54.1833
2023-04-15T10:35:03.423Z,53.6488
2023-04-15T10:36:05.744Z,52.7872
2023-04-15T10:37:08.071Z,49.2291
2023-04-15T10:38:10.412Z,50.4931
2023-04-15T10:39:12.751Z,52.4912
2023-04-15T10:40:15.109Z,55.8290
2023-04-15T10:41:19.530Z,54.4677
2023-04-15T10:42:19.801Z,53.8506
2023-04-15T10:43:22.110Z,54.5895
2023-04-15T10:44:24.452Z,53.7255
2023-04-15T10:45:26.801Z,53.0092
2023-04-15T10:46:29.188Z,51.7334
2023-04-15T10:47:31.471Z,52.5194
2023-04-15T10:48:33.796Z,52.8253
2023-04-15T10:49:36.146Z,54.3405
2023-04-15T10:50:38.477Z,53.4144
2023-04-15T10:51:40.809Z,54.1556
2023-04-15T10:52:43.152Z,53.4906
2023-04-15T10:53:45.473Z,52.8554
2023-04-15T10:54:47.817Z,52.3062
2023-04-15T10:55:50.174Z,52.4488
2023-04-15T10:56:52.503Z,52.0985
2023-04-15T10:57:54.828Z,53.3234
2023-04-15T10:58:57.163Z,53.3113
2023-04-15T10:59:59.509Z,54.2637
2023-04-15T11:01:01.934Z,55.0283
2023-04-15T11:02:04.332Z,55.1949
2023-04-15T11:03:06.738Z,53.8809
2023-04-15T11:04:09.021Z,53.3545
2023-04-15T11:05:11.181Z,53.6900
2023-04-15T11:06:13.533Z,54.1923
2023-04-15T11:07:15.856Z,53.9837
2023-04-15T11:08:18.194Z,53.6841
2023-04-15T11:09:20.541Z,55.1366
2023-04-15T11:10:22.873Z,54.5819
2023-04-15T11:11:25.345Z,53.8221
2023-04-15T11:12:27.546Z,53.6294
2023-04-15T11:13:29.882Z,52.8992
2023-04-15T11:14:32.214Z,54.0380
2023-04-15T11:15:34.558Z,54.7699
2023-04-15T11:16:36.928Z,54.3105
2023-04-15T11:17:39.256Z,54.0964
2023-04-15T11:18:41.560Z,53.0855
2023-04-15T11:19:43.893Z,53.7572
2023-04-15T11:20:46.228Z,52.6137
2023-04-15T11:21:48.573Z,52.1371
2023-04-15T11:22:50.928Z,50.6531
2023-04-15T11:23:53.242Z,50.8969
2023-04-15T11:24:55.568Z,51.9973
2023-04-15T11:25:57.928Z,52.0742
2023-04-15T11:27:00.239Z,51.6627
2023-04-15T11:28:02.570Z,51.4158
2023-04-15T11:29:05.147Z,52.0341
2023-04-15T11:30:07.241Z,51.1715
2023-04-15T11:31:09.589Z,50.1929
2023-04-15T11:32:12.103Z,50.3755
2023-04-15T11:33:14.261Z,51.1306
2023-04-15T11:34:16.587Z,51.5301
2023-04-15T11:35:18.929Z,51.6159
2023-04-15T11:36:21.268Z,53.3058
2023-04-15T11:37:23.617Z,51.3840
2023-04-15T11:38:25.960Z,51.1601
2023-04-15T11:39:28.276Z,51.0662
2023-04-15T11:40:30.608Z,50.8647
2023-04-15T11:41:32.960Z,51.4403
2023-04-15T11:42:48.757Z,50.5831
2023-04-15T11:43:37.648Z,50.6598
2023-04-15T11:44:39.967Z,50.9658
2023-04-15T11:45:42.336Z,50.9423
2023-04-15T11:46:45.664Z,50.9000
2023-04-15T11:47:47.025Z,51.1391
2023-04-15T11:48:49.318Z,51.6252
2023-04-15T11:49:51.638Z,52.2767
2023-04-15T11:50:53.990Z,51.5608
2023-04-15T11:51:56.331Z,51.7656
2023-04-15T11:52:58.656Z,52.0307
2023-04-15T11:54:01.113Z,52.1156
2023-04-15T11:55:03.344Z,51.9818
2023-04-15T11:56:05.683Z,52.5727
2023-04-15T11:57:08.005Z,53.0461
2023-04-15T11:58:10.356Z,53.2305
2023-04-15T11:59:12.681Z,53.4235
2023-04-15T12:00:15.016Z,53.8855
2023-04-15T12:01:17.372Z,53.9044
2023-04-15T12:02:19.808Z,53.7553
2023-04-15T12:03:22.174Z,53.0203
2023-04-15T12:04:25.872Z,53.4535
2023-04-15T12:05:26.705Z,53.4929
2023-04-15T12:06:29.053Z,53.4022
2023-04-15T12:07:32.166Z,53.9173
2023-04-15T12:08:33.725Z,53.9344
2023-04-15T12:09:36.067Z,53.8323
2023-04-15T12:10:38.396Z,54.2193
2023-04-15T12:11:40.751Z,54.5297
2023-04-15T12:12:43.078Z,55.2820
2023-04-15T12:13:45.412Z,55.9684
2023-04-15T12:14:47.771Z,55.6702
2023-04-15T12:15:50.122Z,55.5839
2023-04-15T12:16:52.585Z,55.3157
2023-04-15T12:17:54.820Z,55.3545
2023-04-15T12:18:57.118Z,55.2292
2023-04-15T12:19:59.507Z,54.8529
2023-04-15T12:21:01.821Z,54.9536
2023-04-15T12:22:04.142Z,53.9994
2023-04-15T12:23:06.485Z,53.6219
2023-04-15T12:24:08.833Z,54.0052
2023-04-15T12:25:11.158Z,54.3534
2023-04-15T12:26:13.491Z,53.9197
2023-04-15T12:27:15.864Z,54.2702
2023-04-15T12:28:18.180Z,54.7078
2023-04-15T12:29:20.499Z,54.1792
2023-04-15T12:30:22.831Z,54.7089
2023-04-15T12:31:25.231Z,54.6860
2023-04-15T12:32:27.549Z,54.4548
2023-04-15T12:33:29.844Z,54.5197